CheckWX is a tool to help pilots better visualize weather data.  It is not intended as a substitute for an official pre-flight weather briefing.

12:48:28 UTC

GMMW TAF
Nador International Airport
Nador, Morocco
TAF GMMW 221100Z 2212/2318 06008KT 9999 SCT016 PROB30 TEMPO 2212/2221 06012G26KT

Mar-22@
12:00 UTC

Mar-22 @ 12:00 UTC

Mar-23@
18:00 UTC

Mar-23 @ 18:00 UTC

TAF GMMW 221100Z 2212/2318 06008KT 9999 SCT016
Wind
  • 060° at 8 KTS
Cloud Levels
  • Scattered at 1,600' AGL

Mar-22@
12:00 UTC

Mar-22 @ 12:00 UTC

Mar-22@
21:00 UTC

Mar-22 @ 21:00 UTC

PROB30 TEMPO 2212/2221 06012G26KT

Temporary - 30% Likelihood

Temporary - 30% Likelihood during this time.

Wind
  • 060° at 12 KTS
  • {Gusting to 26 KTS